Time;durP1;ratioP1;P1;durP2;ratioP2;P2;SDS_P1;SDS_P2;PMS_P1;PMS_P2;Temp;Humidity;BMP_temperature;BMP_pressure;BME280_temperature;BME280_humidity;BME280_pressure;Samples;Min_cycle;Max_cycle;Signal;HPM_P1;HPM_P2
2023/01/03 00:00:00;;;;;;;24.00;10.50;;;;;;;-145.18;100.00;60484.78;5069876;28;20479;-65
2023/01/03 00:02:26;;;;;;;28.23;11.03;;;;;;;-145.18;100.00;60484.78;5063544;28;20125;-65
2023/01/03 00:04:51;;;;;;;27.83;11.33;;;;;;;-145.18;100.00;60484.78;5062008;28;20043;-65
2023/01/03 00:07:32;;;;;;;27.13;11.43;;;;;;;-145.18;100.00;60484.78;5068716;28;20028;-64
2023/01/03 00:09:59;;;;;;;30.43;10.80;;;;;;;-145.18;100.00;60484.78;5074320;28;20035;-65
2023/01/03 00:12:25;;;;;;;27.43;12.13;;;;;;;-145.18;100.00;60484.78;5075886;28;20379;-65
2023/01/03 00:14:50;;;;;;;28.57;11.47;;;;;;;-145.18;100.00;60484.78;5075530;28;20024;-65
2023/01/03 00:17:18;;;;;;;28.73;12.50;;;;;;;-145.18;100.00;60484.78;5072104;28;20107;-65
2023/01/03 00:19:44;;;;;;;31.70;11.77;;;;;;;-145.18;100.00;60484.78;5072485;28;20032;-64
2023/01/03 00:22:11;;;;;;;25.27;12.27;;;;;;;-145.18;100.00;60484.78;5074855;28;20434;-65
2023/01/03 00:24:37;;;;;;;25.67;11.53;;;;;;;-145.18;100.00;60484.78;5075681;28;20494;-64
2023/01/03 00:27:03;;;;;;;35.13;13.87;;;;;;;-145.18;100.00;60484.78;5075301;28;20111;-65
2023/01/03 00:29:28;;;;;;;35.77;12.50;;;;;;;-145.18;100.00;60484.78;5073778;28;20480;-65
2023/01/03 00:31:54;;;;;;;31.20;12.20;;;;;;;-145.18;100.00;60484.78;5069261;28;20024;-65
2023/01/03 00:34:19;;;;;;;32.50;13.03;;;;;;;-145.18;100.00;60484.78;5074546;28;20073;-65
2023/01/03 00:36:45;;;;;;;37.00;12.67;;;;;;;-145.18;100.00;60484.78;5072959;28;20036;-65
2023/01/03 00:39:10;;;;;;;31.47;12.43;;;;;;;-145.18;100.00;60484.78;5072007;28;20033;-65
2023/01/03 00:41:36;;;;;;;33.37;12.27;;;;;;;-145.18;100.00;60484.78;5072004;28;20112;-65
2023/01/03 00:44:02;;;;;;;38.50;12.93;;;;;;;-145.18;100.00;60484.78;5074976;28;20028;-65
2023/01/03 00:46:28;;;;;;;29.03;12.47;;;;;;;-145.18;100.00;60484.78;5075178;28;20036;-65
2023/01/03 00:48:53;;;;;;;30.17;12.83;;;;;;;-145.18;100.00;60484.78;5073688;28;20036;-65
2023/01/03 00:51:21;;;;;;;31.73;13.07;;;;;;;-145.18;100.00;60484.78;5068078;28;20361;-65
2023/01/03 00:53:49;;;;;;;34.83;13.00;;;;;;;-145.18;100.00;60484.78;5056423;28;20427;-64
2023/01/03 00:56:18;;;;;;;32.93;12.17;;;;;;;-145.18;100.00;60484.78;5074201;28;20027;-64
2023/01/03 00:58:44;;;;;;;35.50;12.13;;;;;;;-145.18;100.00;60484.78;5074796;28;20526;-65
2023/01/03 01:01:15;;;;;;;31.93;12.87;;;;;;;-145.18;100.00;60484.78;5074763;28;20032;-65
2023/01/03 01:03:44;;;;;;;36.65;12.48;;;;;;;-145.18;100.00;60484.78;5073003;28;20480;-65
2023/01/03 01:06:22;;;;;;;28.10;12.47;;;;;;;-145.18;100.00;60484.78;5074524;28;20070;-64
2023/01/03 01:08:49;;;;;;;30.13;12.60;;;;;;;-145.18;100.00;60484.78;5074509;28;20138;-64
2023/01/03 01:11:16;;;;;;;26.73;11.63;;;;;;;-145.18;100.00;60484.78;5074771;28;20074;-65
2023/01/03 01:13:43;;;;;;;26.73;10.90;;;;;;;-145.18;100.00;60484.78;5059025;28;20021;-64
2023/01/03 01:16:15;;;;;;;32.27;12.77;;;;;;;-145.18;100.00;60484.78;5054342;28;20021;-65
2023/01/03 01:18:43;;;;;;;30.50;12.27;;;;;;;-145.18;100.00;60484.78;5068464;28;20033;-65
2023/01/03 01:21:11;;;;;;;29.73;12.20;;;;;;;-145.18;100.00;60484.78;5072747;28;20059;-65
2023/01/03 01:23:38;;;;;;;25.10;11.60;;;;;;;-145.18;100.00;60484.78;5056274;28;20052;-64
2023/01/03 01:26:05;;;;;;;32.20;11.90;;;;;;;-145.18;100.00;60484.78;5054415;28;20028;-64
2023/01/03 01:28:31;;;;;;;27.43;11.90;;;;;;;-145.18;100.00;60484.78;5068339;28;20388;-65
2023/01/03 01:30:58;;;;;;;27.97;12.53;;;;;;;-145.18;100.00;60484.78;5068660;28;20024;-64
2023/01/03 01:33:24;;;;;;;31.50;12.63;;;;;;;-145.18;100.00;60484.78;5067766;28;20082;-64
2023/01/03 01:35:49;;;;;;;27.07;10.00;;;;;;;-145.18;100.00;60484.78;5063832;28;20040;-64
2023/01/03 01:38:15;;;;;;;28.43;12.37;;;;;;;-145.18;100.00;60484.78;5053892;28;20041;-64
2023/01/03 01:40:40;;;;;;;30.03;10.83;;;;;;;-145.18;100.00;60484.78;5056493;28;20025;-64
2023/01/03 01:46:17;;;;;;;26.67;12.00;;;;;;;-145.18;100.00;60484.78;5060904;28;20039;-64
2023/01/03 01:48:42;;;;;;;31.17;12.37;;;;;;;-145.18;100.00;60484.78;5063155;28;20383;-64
2023/01/03 01:51:10;;;;;;;30.57;13.07;;;;;;;-145.18;100.00;60484.78;5073706;28;20028;-64
2023/01/03 01:53:39;;;;;;;30.33;12.83;;;;;;;-145.18;100.00;60484.78;5074045;28;20025;-65
2023/01/03 01:56:20;;;;;;;27.50;12.60;;;;;;;-145.18;100.00;60484.78;5073740;28;20032;-63
2023/01/03 01:58:49;;;;;;;27.73;12.87;;;;;;;-145.18;100.00;60484.78;5072403;28;20033;-64
2023/01/03 02:01:17;;;;;;;31.60;12.90;;;;;;;-145.18;100.00;60484.78;5053929;28;20040;-64
2023/01/03 02:03:49;;;;;;;33.63;13.50;;;;;;;-145.18;100.00;60484.78;5077617;22;20118;-76
2023/01/03 02:06:16;;;;;;;30.73;12.27;;;;;;;-145.18;100.00;60484.78;5033273;28;20036;-76
2023/01/03 02:08:41;;;;;;;30.60;13.90;;;;;;;-145.18;100.00;60484.78;5033188;28;20117;-76
2023/01/03 02:11:23;;;;;;;35.93;14.40;;;;;;;-145.18;100.00;60484.78;5033937;28;20075;-76
2023/01/03 02:14:05;;;;;;;36.22;13.88;;;;;;;-145.18;100.00;60484.78;5034051;28;20026;-76
2023/01/03 02:17:12;;;;;;;35.33;14.07;;;;;;;-145.18;100.00;60484.78;5034101;28;20037;-76
2023/01/03 02:19:52;;;;;;;38.30;14.20;;;;;;;-145.18;100.00;60484.78;5031490;28;20044;-76
2023/01/03 02:22:39;;;;;;;41.43;14.57;;;;;;;-145.18;100.00;60484.78;5019047;28;20030;-76
2023/01/03 02:25:42;;;;;;;39.33;16.00;;;;;;;-145.18;100.00;60484.78;5033963;28;20384;-76
2023/01/03 02:28:29;;;;;;;39.23;15.37;;;;;;;-145.18;100.00;60484.78;5032478;28;20028;-76
2023/01/03 02:31:03;;;;;;;54.03;14.80;;;;;;;-145.18;100.00;60484.78;5033386;28;20108;-76
2023/01/03 02:33:44;;;;;;;45.17;15.07;;;;;;;-145.18;100.00;60484.78;5031688;28;20036;-76
2023/01/03 02:36:48;;;;;;;54.72;16.25;;;;;;;-145.18;100.00;60484.78;5033947;28;20112;-76
2023/01/03 02:39:31;;;;;;;49.63;15.67;;;;;;;-145.18;100.00;60484.78;5033412;28;20041;-76
2023/01/03 02:45:29;;;;;;;42.57;15.50;;;;;;;-145.18;100.00;60484.78;5013598;28;20455;-76
2023/01/03 02:48:06;;;;;;;47.13;15.83;;;;;;;-145.18;100.00;60484.78;5013662;28;20493;-76
2023/01/03 02:50:41;;;;;;;56.00;17.53;;;;;;;-145.18;100.00;60484.78;5032592;28;20540;-76
2023/01/03 02:53:11;;;;;;;46.97;16.33;;;;;;;-145.18;100.00;60484.78;5033303;28;20495;-76
2023/01/03 02:55:37;;;;;;;48.83;17.57;;;;;;;-145.18;100.00;60484.78;5033153;28;20029;-76
2023/01/03 02:58:13;;;;;;;49.93;18.17;;;;;;;-145.18;100.00;60484.78;5033804;28;20529;-76
2023/01/03 03:00:44;;;;;;;56.10;17.67;;;;;;;-145.18;100.00;60484.78;5014160;28;20025;-76
2023/01/03 03:03:14;;;;;;;58.72;18.50;;;;;;;-145.18;100.00;60484.78;5010236;28;20084;-76
2023/01/03 03:05:48;;;;;;;61.60;18.30;;;;;;;-145.18;100.00;60484.78;5008974;28;20033;-76
2023/01/03 03:08:14;;;;;;;65.17;18.87;;;;;;;-145.18;100.00;60484.78;5012636;28;20052;-76
2023/01/03 03:13:42;;;;;;;70.43;18.90;;;;;;;-145.18;100.00;60484.78;5013345;28;20516;-76
2023/01/03 03:25:02;;;;;;;64.17;19.47;;;;;;;-145.18;100.00;60484.78;4999643;28;20032;-76
2023/01/03 03:30:18;;;;;;;77.23;22.03;;;;;;;-145.18;100.00;60484.78;5012669;28;20028;-76
2023/01/03 03:32:47;;;;;;;68.00;19.77;;;;;;;-145.18;100.00;60484.78;5011327;28;20030;-76
2023/01/03 03:35:15;;;;;;;62.20;19.70;;;;;;;-145.18;100.00;60484.78;5012467;28;20026;-76
2023/01/03 03:37:45;;;;;;;74.77;20.17;;;;;;;-145.18;100.00;60484.78;5012828;28;20431;-76
2023/01/03 03:45:47;;;;;;;93.80;23.30;;;;;;;-145.18;100.00;60484.78;5011939;28;20037;-76
2023/01/03 03:48:20;;;;;;;91.80;22.63;;;;;;;-145.18;100.00;60484.78;5011210;28;20033;-76
2023/01/03 03:50:51;;;;;;;77.47;21.73;;;;;;;-145.18;100.00;60484.78;5012846;28;20386;-77
2023/01/03 03:53:21;;;;;;;88.95;22.38;;;;;;;-145.18;100.00;60484.78;5011467;28;20105;-76
2023/01/03 03:56:02;;;;;;;94.87;22.50;;;;;;;-145.18;100.00;60484.78;5009422;28;20038;-76
2023/01/03 03:58:35;;;;;;;97.40;23.17;;;;;;;-145.18;100.00;60484.78;5013109;28;20029;-76
2023/01/03 04:01:02;;;;;;;113.43;23.43;;;;;;;-145.18;100.00;60484.78;5015072;28;20109;-74
2023/01/03 04:03:30;;;;;;;118.53;24.40;;;;;;;-145.18;100.00;60484.78;5014919;28;20084;-74
2023/01/03 04:06:04;;;;;;;108.23;23.73;;;;;;;-145.18;100.00;60484.78;5016739;28;20053;-74
2023/01/03 04:08:29;;;;;;;105.37;23.63;;;;;;;-145.18;100.00;60484.78;4998986;28;20090;-74
2023/01/03 04:11:04;;;;;;;124.20;24.30;;;;;;;-145.18;100.00;60484.78;5016651;28;20046;-74
2023/01/03 04:13:34;;;;;;;120.23;24.20;;;;;;;-145.18;100.00;60484.78;5017076;28;20018;-74
2023/01/03 04:15:59;;;;;;;116.03;22.90;;;;;;;-145.18;100.00;60484.78;5017176;28;20081;-74
2023/01/03 04:18:25;;;;;;;126.03;23.50;;;;;;;-145.18;100.00;60484.78;5015293;28;20469;-73
2023/01/03 04:20:50;;;;;;;127.07;23.73;;;;;;;-145.18;100.00;60484.78;5017123;28;20089;-74
2023/01/03 04:23:15;;;;;;;118.63;21.90;;;;;;;-145.18;100.00;60484.78;5016417;28;20461;-73
2023/01/03 04:25:42;;;;;;;141.37;23.40;;;;;;;-145.18;100.00;60484.78;5016884;28;20045;-74
2023/01/03 04:28:07;;;;;;;110.77;24.20;;;;;;;-145.18;100.00;60484.78;5015369;28;20060;-74
2023/01/03 04:30:33;;;;;;;124.77;25.00;;;;;;;-145.18;100.00;60484.78;5014864;28;20026;-74
2023/01/03 04:33:03;;;;;;;156.97;27.40;;;;;;;-145.18;100.00;60484.78;5015064;28;20041;-74
2023/01/03 04:35:29;;;;;;;145.93;26.50;;;;;;;-145.18;100.00;60484.78;4999762;28;20118;-74
2023/01/03 04:37:54;;;;;;;138.17;27.73;;;;;;;-145.18;100.00;60484.78;5015546;28;20052;-74
2023/01/03 04:40:19;;;;;;;151.03;27.80;;;;;;;-145.18;100.00;60484.78;5018058;28;20034;-73
2023/01/03 04:45:29;;;;;;;149.23;28.03;;;;;;;-145.18;100.00;60484.78;5019536;28;20032;-74
2023/01/03 04:47:54;;;;;;;153.50;26.70;;;;;;;-145.18;100.00;60484.78;5016279;28;20049;-73
2023/01/03 04:50:19;;;;;;;153.00;26.30;;;;;;;-145.18;100.00;60484.78;5015825;28;20026;-73
2023/01/03 04:52:45;;;;;;;171.50;26.20;;;;;;;-145.18;100.00;60484.78;5018277;28;20481;-73
2023/01/03 04:55:11;;;;;;;147.43;25.23;;;;;;;-145.18;100.00;60484.78;5019937;28;20128;-73
2023/01/03 04:57:37;;;;;;;186.17;28.70;;;;;;;-145.18;100.00;60484.78;5022054;28;20474;-73
2023/01/03 05:00:04;;;;;;;171.60;29.60;;;;;;;-145.18;100.00;60484.78;5021855;28;20026;-73
2023/01/03 05:02:29;;;;;;;185.63;30.00;;;;;;;-145.18;100.00;60484.78;5019194;28;21619;-74
2023/01/03 05:04:55;;;;;;;227.17;30.33;;;;;;;-145.18;100.00;60484.78;5019820;28;20029;-74
2023/01/03 05:07:20;;;;;;;203.00;28.57;;;;;;;-145.18;100.00;60484.78;5019830;28;20605;-74
2023/01/03 05:09:46;;;;;;;167.33;29.23;;;;;;;-145.18;100.00;60484.78;5018696;28;20378;-74
2023/01/03 05:12:11;;;;;;;214.37;29.70;;;;;;;-145.18;100.00;60484.78;5016875;28;20104;-73
2023/01/03 05:14:40;;;;;;;180.13;29.23;;;;;;;-145.18;100.00;60484.78;5017646;28;20022;-74
2023/01/03 05:17:07;;;;;;;166.10;29.13;;;;;;;-145.18;100.00;60484.78;5016888;28;20032;-73
2023/01/03 05:19:32;;;;;;;226.23;32.73;;;;;;;-145.18;100.00;60484.78;5016881;28;20017;-74
2023/01/03 05:27:26;;;;;;;244.33;34.93;;;;;;;-145.18;100.00;60484.78;5011382;28;20504;-74
2023/01/03 05:29:53;;;;;;;247.47;36.47;;;;;;;-145.18;100.00;60484.78;5014119;28;20026;-73
2023/01/03 05:32:19;;;;;;;280.03;38.80;;;;;;;-145.18;100.00;60484.78;5009976;28;20026;-73
2023/01/03 05:34:45;;;;;;;301.53;37.40;;;;;;;-145.18;100.00;60484.78;5016843;28;20039;-74
2023/01/03 05:37:10;;;;;;;277.07;36.27;;;;;;;-145.18;100.00;60484.78;5018433;28;20438;-74
2023/01/03 05:39:36;;;;;;;280.53;37.43;;;;;;;-145.18;100.00;60484.78;5016080;28;20025;-73
2023/01/03 05:42:01;;;;;;;284.37;36.60;;;;;;;-145.18;100.00;60484.78;5018267;28;20112;-74
2023/01/03 05:44:33;;;;;;;328.37;38.70;;;;;;;-145.18;100.00;60484.78;5017762;28;20022;-74
2023/01/03 05:47:00;;;;;;;289.30;36.43;;;;;;;-145.18;100.00;60484.78;5016796;28;20029;-74
2023/01/03 05:49:26;;;;;;;303.87;37.80;;;;;;;-145.18;100.00;60484.78;5016471;28;20072;-74
2023/01/03 05:51:52;;;;;;;262.87;38.70;;;;;;;-145.18;100.00;60484.78;5016669;28;20030;-74
2023/01/03 05:54:18;;;;;;;290.40;39.47;;;;;;;-145.18;100.00;60484.78;5016903;28;20022;-74
2023/01/03 05:56:44;;;;;;;302.10;42.27;;;;;;;-145.18;100.00;60484.78;5016866;28;20049;-73
2023/01/03 05:59:10;;;;;;;310.73;41.67;;;;;;;-145.18;100.00;60484.78;5014976;28;20060;-74
2023/01/03 06:01:36;;;;;;;289.87;40.43;;;;;;;-145.18;100.00;60484.78;5016152;28;20034;-73
2023/01/03 06:04:01;;;;;;;282.33;41.93;;;;;;;-145.18;100.00;60484.78;5011017;28;20026;-74
2023/01/03 06:06:26;;;;;;;299.40;43.10;;;;;;;-145.18;100.00;60484.78;5014691;28;20462;-73
2023/01/03 06:08:53;;;;;;;317.30;43.60;;;;;;;-145.18;100.00;60484.78;5014735;28;20017;-73
2023/01/03 06:11:19;;;;;;;290.27;42.10;;;;;;;-145.18;100.00;60484.78;5011163;28;20477;-73
2023/01/03 06:13:45;;;;;;;295.33;41.23;;;;;;;-145.18;100.00;60484.78;5013502;28;20101;-73
2023/01/03 06:19:03;;;;;;;298.67;41.87;;;;;;;-145.18;100.00;60484.78;5013093;28;20503;-73
2023/01/03 06:21:28;;;;;;;364.87;44.23;;;;;;;-145.18;100.00;60484.78;5014777;28;20099;-73
2023/01/03 06:23:54;;;;;;;305.43;43.07;;;;;;;-145.18;100.00;60484.78;5011109;28;20165;-73
2023/01/03 06:26:22;;;;;;;307.93;41.63;;;;;;;-145.18;100.00;60484.78;5015784;28;20030;-73
2023/01/03 06:28:48;;;;;;;310.67;44.23;;;;;;;-145.18;100.00;60484.78;5015471;28;20025;-73
2023/01/03 06:31:14;;;;;;;336.43;45.03;;;;;;;-145.18;100.00;60484.78;5016125;28;20020;-73
2023/01/03 06:33:39;;;;;;;335.43;45.57;;;;;;;-145.18;100.00;60484.78;5013939;28;20117;-73
2023/01/03 06:36:08;;;;;;;313.13;43.83;;;;;;;-145.18;100.00;60484.78;5014651;28;20775;-73
2023/01/03 06:38:34;;;;;;;320.07;45.80;;;;;;;-145.18;100.00;60484.78;5015147;28;20038;-73
2023/01/03 06:41:00;;;;;;;322.03;43.47;;;;;;;-145.18;100.00;60484.78;5015399;28;20458;-73
2023/01/03 06:43:25;;;;;;;329.20;45.87;;;;;;;-145.18;100.00;60484.78;5015108;28;20053;-73
2023/01/03 06:54:18;;;;;;;350.93;45.93;;;;;;;-145.18;100.00;60484.78;5016649;28;20037;-73
2023/01/03 06:56:43;;;;;;;335.83;46.83;;;;;;;-145.18;100.00;60484.78;5014399;28;20053;-73
2023/01/03 06:59:09;;;;;;;363.13;49.00;;;;;;;-145.18;100.00;60484.78;5015291;28;20053;-73
2023/01/03 07:01:34;;;;;;;356.37;47.27;;;;;;;-145.18;100.00;60484.78;5014384;28;20041;-73
2023/01/03 07:04:01;;;;;;;335.23;44.77;;;;;;;-145.18;100.00;60484.78;5013373;28;20041;-73
2023/01/03 07:06:27;;;;;;;330.47;47.43;;;;;;;-145.18;100.00;60484.78;5014762;28;20221;-73
2023/01/03 07:08:53;;;;;;;332.07;45.33;;;;;;;-145.18;100.00;60484.78;5014209;28;20049;-73
2023/01/03 07:11:18;;;;;;;343.10;47.83;;;;;;;-145.18;100.00;60484.78;5014566;28;20056;-73
2023/01/03 07:13:59;;;;;;;346.67;48.07;;;;;;;-145.18;100.00;60484.78;5014368;28;20466;-73
2023/01/03 07:16:34;;;;;;;387.83;48.43;;;;;;;-145.18;100.00;60484.78;5012726;28;20022;-73
2023/01/03 07:19:00;;;;;;;364.33;49.53;;;;;;;-145.18;100.00;60484.78;5011212;28;20215;-73
2023/01/03 07:21:31;;;;;;;362.27;50.43;;;;;;;-145.18;100.00;60484.78;5009914;28;20385;-73
2023/01/03 07:24:00;;;;;;;370.90;49.27;;;;;;;-145.18;100.00;60484.78;5012615;28;20429;-73
2023/01/03 07:26:27;;;;;;;365.03;48.10;;;;;;;-145.18;100.00;60484.78;5013484;28;20121;-73
2023/01/03 07:28:52;;;;;;;357.80;50.40;;;;;;;-145.18;100.00;60484.78;5013651;28;20088;-73
2023/01/03 07:31:18;;;;;;;412.43;50.73;;;;;;;-145.18;100.00;60484.78;5011286;28;20381;-73
2023/01/03 07:33:44;;;;;;;420.43;49.93;;;;;;;-145.18;100.00;60484.78;5009031;28;20030;-73
2023/01/03 07:36:12;;;;;;;397.53;50.83;;;;;;;-145.18;100.00;60484.78;5007732;28;20030;-73
2023/01/03 07:38:40;;;;;;;375.40;51.07;;;;;;;-145.18;100.00;60484.78;5007293;28;20025;-73
2023/01/03 07:41:08;;;;;;;410.07;51.37;;;;;;;-145.18;100.00;60484.78;5004405;28;20018;-73
2023/01/03 07:43:38;;;;;;;395.40;51.70;;;;;;;-145.18;100.00;60484.78;5005577;28;20116;-73
2023/01/03 07:46:12;;;;;;;392.93;51.43;;;;;;;-145.18;100.00;60484.78;5005796;28;20038;-73
2023/01/03 07:48:38;;;;;;;393.63;52.43;;;;;;;-145.18;100.00;60484.78;5004994;28;20630;-73
2023/01/03 07:51:06;;;;;;;371.20;51.67;;;;;;;-145.18;100.00;60484.78;5009598;28;20026;-73
2023/01/03 07:53:32;;;;;;;388.50;56.33;;;;;;;-145.18;100.00;60484.78;5003240;28;20037;-73
2023/01/03 07:56:10;;;;;;;387.63;54.30;;;;;;;-145.18;100.00;60484.78;5004212;28;20045;-73
2023/01/03 07:58:36;;;;;;;366.63;51.47;;;;;;;-145.18;100.00;60484.78;5006966;28;20040;-73
2023/01/03 08:01:16;;;;;;;378.07;51.90;;;;;;;-145.18;100.00;60484.78;5013145;28;20026;-73
2023/01/03 08:03:42;;;;;;;377.57;52.83;;;;;;;-145.18;100.00;60484.78;5012395;28;20030;-73
2023/01/03 08:06:17;;;;;;;366.03;53.47;;;;;;;-145.18;100.00;60484.78;5013281;28;20370;-73
2023/01/03 08:08:43;;;;;;;378.97;52.43;;;;;;;-145.18;100.00;60484.78;5013045;28;20072;-73
2023/01/03 08:13:58;;;;;;;376.20;52.07;;;;;;;-145.18;100.00;60484.78;5012700;28;20046;-73
2023/01/03 08:16:24;;;;;;;334.97;53.23;;;;;;;-145.18;100.00;60484.78;5010584;28;20531;-73
2023/01/03 08:18:50;;;;;;;348.93;52.13;;;;;;;-145.18;100.00;60484.78;5012001;28;20030;-73
2023/01/03 08:21:16;;;;;;;362.50;53.47;;;;;;;-145.18;100.00;60484.78;5011933;28;20057;-73
2023/01/03 08:23:41;;;;;;;358.37;52.53;;;;;;;-145.18;100.00;60484.78;5012469;28;20064;-73
2023/01/03 08:26:13;;;;;;;337.80;51.57;;;;;;;-145.18;100.00;60484.78;5011999;28;20500;-73
2023/01/03 08:28:40;;;;;;;357.92;51.42;;;;;;;-145.18;100.00;60484.78;5007208;28;20108;-73
2023/01/03 08:31:10;;;;;;;329.63;50.80;;;;;;;-145.18;100.00;60484.78;5015489;28;20021;-73
2023/01/03 08:33:42;;;;;;;323.57;49.90;;;;;;;-145.18;100.00;60484.78;5014473;28;20465;-73
2023/01/03 08:36:09;;;;;;;351.70;51.17;;;;;;;-145.18;100.00;60484.78;5016344;28;20030;-73
2023/01/03 08:38:49;;;;;;;314.97;50.93;;;;;;;-145.18;100.00;60484.78;5015894;28;20061;-73
2023/01/03 08:41:19;;;;;;;359.07;49.63;;;;;;;-145.18;100.00;60484.78;5016528;28;20026;-73
2023/01/03 08:43:46;;;;;;;332.73;52.13;;;;;;;-145.18;100.00;60484.78;5016457;28;20053;-73
2023/01/03 08:46:15;;;;;;;323.70;50.87;;;;;;;-145.18;100.00;60484.78;5015678;28;20040;-73
2023/01/03 08:48:41;;;;;;;318.47;49.23;;;;;;;-145.18;100.00;60484.78;5014246;28;20557;-73
2023/01/03 08:51:06;;;;;;;297.77;48.43;;;;;;;-145.18;100.00;60484.78;5016671;28;20018;-73
2023/01/03 08:53:31;;;;;;;339.30;49.57;;;;;;;-145.18;100.00;60484.78;5016753;28;20021;-73
2023/01/03 08:55:57;;;;;;;324.03;50.23;;;;;;;-145.18;100.00;60484.78;5016412;28;20556;-73
2023/01/03 08:58:22;;;;;;;298.23;47.10;;;;;;;-145.18;100.00;60484.78;5016973;28;20048;-73
2023/01/03 09:00:48;;;;;;;290.03;47.60;;;;;;;-145.18;100.00;60484.78;5015515;28;20063;-73
2023/01/03 09:03:13;;;;;;;267.50;45.93;;;;;;;-145.18;100.00;60484.78;5014705;28;20758;-73
2023/01/03 09:05:38;;;;;;;260.93;46.37;;;;;;;-145.18;100.00;60484.78;5015804;28;20022;-73
2023/01/03 09:08:04;;;;;;;255.37;46.77;;;;;;;-145.18;100.00;60484.78;5015954;28;20111;-73
2023/01/03 09:10:30;;;;;;;268.77;47.27;;;;;;;-145.18;100.00;60484.78;5016174;28;20026;-73
2023/01/03 09:12:55;;;;;;;275.87;47.70;;;;;;;-145.18;100.00;60484.78;5015049;28;20168;-73
2023/01/03 09:15:20;;;;;;;249.77;45.13;;;;;;;-145.18;100.00;60484.78;5014632;28;20038;-73
2023/01/03 09:17:46;;;;;;;255.57;44.97;;;;;;;-145.18;100.00;60484.78;5013735;28;20458;-73
2023/01/03 09:20:13;;;;;;;235.27;44.77;;;;;;;-145.18;100.00;60484.78;5013954;28;20417;-73
2023/01/03 09:22:38;;;;;;;238.60;43.13;;;;;;;-145.18;100.00;60484.78;5011128;28;20033;-73
2023/01/03 09:25:04;;;;;;;213.33;41.37;;;;;;;-145.18;100.00;60484.78;4999673;28;20022;-73
2023/01/03 09:27:30;;;;;;;218.67;40.37;;;;;;;-145.18;100.00;60484.78;5006171;28;20022;-73
2023/01/03 09:29:55;;;;;;;217.00;42.67;;;;;;;-145.18;100.00;60484.78;5015884;28;20042;-73
2023/01/03 09:32:20;;;;;;;201.97;40.10;;;;;;;-145.18;100.00;60484.78;5013785;28;20037;-73
2023/01/03 09:34:46;;;;;;;191.37;40.37;;;;;;;-145.18;100.00;60484.78;5013820;28;20022;-73
2023/01/03 09:37:11;;;;;;;189.47;38.23;;;;;;;-145.18;100.00;60484.78;5015323;28;20029;-73
2023/01/03 09:39:39;;;;;;;183.50;37.53;;;;;;;-145.18;100.00;60484.78;5014688;28;20482;-73
2023/01/03 09:44:51;;;;;;;168.57;38.50;;;;;;;-145.18;100.00;60484.78;5006994;28;20157;-73
2023/01/03 09:47:24;;;;;;;138.83;35.87;;;;;;;-145.18;100.00;60484.78;5000179;28;20390;-73
2023/01/03 09:49:51;;;;;;;140.30;36.17;;;;;;;-145.18;100.00;60484.78;5007413;28;20013;-73
2023/01/03 10:04:39;;;;;;;146.13;35.63;;;;;;;-145.18;100.00;60484.78;5015315;28;20044;-73
2023/01/03 10:07:27;;;;;;;137.00;35.80;;;;;;;-145.18;100.00;60484.78;5016030;28;20045;-73
2023/01/03 10:10:14;;;;;;;138.70;35.13;;;;;;;-145.18;100.00;60484.78;5017551;28;20032;-73
2023/01/03 10:12:58;;;;;;;138.63;35.83;;;;;;;-145.18;100.00;60484.78;5016626;28;20034;-73
2023/01/03 10:15:47;;;;;;;137.57;36.87;;;;;;;-145.18;100.00;60484.78;5015680;28;20026;-73
2023/01/03 10:18:56;;;;;;;132.27;35.60;;;;;;;-145.18;100.00;60484.78;5018455;28;20061;-73
2023/01/03 10:21:25;;;;;;;134.93;34.47;;;;;;;-145.18;100.00;60484.78;4934996;28;20124;-73
2023/01/03 10:23:52;;;;;;;131.37;36.67;;;;;;;-145.18;100.00;60484.78;4996696;28;20050;-73
2023/01/03 10:26:18;;;;;;;114.33;32.83;;;;;;;-145.18;100.00;60484.78;4998087;28;20034;-73
2023/01/03 10:28:46;;;;;;;115.57;34.70;;;;;;;-145.18;100.00;60484.78;5016499;28;20125;-73
2023/01/03 10:31:30;;;;;;;110.30;33.90;;;;;;;-145.18;100.00;60484.78;5014169;28;20018;-73
2023/01/03 10:33:55;;;;;;;98.23;31.30;;;;;;;-145.18;100.00;60484.78;5015600;28;20444;-74
2023/01/03 10:36:21;;;;;;;95.60;31.60;;;;;;;-145.18;100.00;60484.78;5016834;28;20100;-74
2023/01/03 10:38:46;;;;;;;90.80;31.53;;;;;;;-145.18;100.00;60484.78;5019008;28;20029;-74
2023/01/03 10:41:40;;;;;;;90.53;31.10;;;;;;;-145.18;100.00;60484.78;5017738;28;20026;-74
2023/01/03 10:44:05;;;;;;;79.70;29.10;;;;;;;-145.18;100.00;60484.78;5017255;28;20026;-73
2023/01/03 10:46:31;;;;;;;67.30;29.40;;;;;;;-145.18;100.00;60484.78;5017675;28;20022;-73
2023/01/03 10:49:16;;;;;;;68.17;29.17;;;;;;;-145.18;100.00;60484.78;5018381;28;20385;-72
2023/01/03 10:51:49;;;;;;;61.57;26.53;;;;;;;-145.18;100.00;60484.78;5019575;28;20029;-72
2023/01/03 10:54:18;;;;;;;59.00;25.23;;;;;;;-145.18;100.00;60484.78;5000248;28;20117;-73
2023/01/03 10:56:44;;;;;;;49.13;24.23;;;;;;;-145.18;100.00;60484.78;5020537;28;20032;-72
2023/01/03 10:59:25;;;;;;;50.50;25.17;;;;;;;-145.18;100.00;60484.78;5016465;28;20047;-73
2023/01/03 11:02:01;;;;;;;49.80;22.90;;;;;;;-145.18;100.00;60484.78;5015881;28;20042;-72
2023/01/03 11:04:29;;;;;;;45.90;21.40;;;;;;;-145.18;100.00;60484.78;5017458;28;20030;-72
2023/01/03 11:07:12;;;;;;;48.83;21.67;;;;;;;-145.18;100.00;60484.78;5017013;28;20362;-73
2023/01/03 11:09:42;;;;;;;45.63;22.47;;;;;;;-145.18;100.00;60484.78;5017176;28;20025;-73
2023/01/03 11:12:14;;;;;;;45.10;21.87;;;;;;;-145.18;100.00;60484.78;5017813;28;20022;-74
2023/01/03 11:14:49;;;;;;;48.70;21.70;;;;;;;-145.18;100.00;60484.78;5017121;28;20033;-75
2023/01/03 11:17:17;;;;;;;45.17;21.37;;;;;;;-145.18;100.00;60484.78;5018342;28;20072;-74
2023/01/03 11:19:42;;;;;;;53.83;23.57;;;;;;;-145.18;100.00;60484.78;5019012;28;20448;-74
2023/01/03 11:22:26;;;;;;;56.50;25.27;;;;;;;-145.18;100.00;60484.78;5017665;28;20030;-73
2023/01/03 11:24:57;;;;;;;51.83;24.63;;;;;;;-145.18;100.00;60484.78;5016723;28;20288;-74
2023/01/03 11:27:25;;;;;;;55.20;26.73;;;;;;;-145.18;100.00;60484.78;5018262;28;20025;-75
2023/01/03 11:30:12;;;;;;;51.17;24.17;;;;;;;-145.18;100.00;60484.78;5020550;28;20060;-74
2023/01/03 11:33:02;;;;;;;53.83;24.77;;;;;;;-145.18;100.00;60484.78;5015360;28;20104;-73
2023/01/03 11:35:30;;;;;;;51.37;24.83;;;;;;;-145.18;100.00;60484.78;5013008;28;20100;-73
2023/01/03 11:38:17;;;;;;;52.30;24.87;;;;;;;-145.18;100.00;60484.78;5016328;28;20071;-73
2023/01/03 11:41:00;;;;;;;48.17;23.10;;;;;;;-145.18;100.00;60484.78;5016636;28;20393;-73
2023/01/03 11:44:04;;;;;;;48.03;23.60;;;;;;;-145.18;100.00;60484.78;5017812;28;20092;-74
2023/01/03 11:46:29;;;;;;;51.10;23.30;;;;;;;-145.18;100.00;60484.78;4980952;28;20040;-74
2023/01/03 11:49:13;;;;;;;50.20;22.97;;;;;;;-145.18;100.00;60484.78;5014694;28;20029;-74
2023/01/03 11:51:47;;;;;;;48.80;22.93;;;;;;;-145.18;100.00;60484.78;5014545;28;20040;-74
2023/01/03 11:54:41;;;;;;;48.00;23.53;;;;;;;-145.18;100.00;60484.78;5017272;28;20030;-73
2023/01/03 11:57:26;;;;;;;50.03;23.27;;;;;;;-145.18;100.00;60484.78;5006071;28;20038;-74
2023/01/03 12:00:14;;;;;;;48.57;22.83;;;;;;;-145.18;100.00;60484.78;5011954;28;20022;-74
2023/01/03 12:03:00;;;;;;;48.60;21.77;;;;;;;-145.18;100.00;60484.78;5015624;28;20088;-73
2023/01/03 12:05:45;;;;;;;50.93;23.30;;;;;;;-145.18;100.00;60484.78;5017459;28;20033;-74